sensor_id;sensor_type;location;lat;lon;timestamp;P1;durP1;ratioP1;P2;durP2;ratioP2
16804;SDS011;8520;50.102;20.010;2023-04-01T00:00:52;4.20;;;3.90;;
16804;SDS011;8520;50.102;20.010;2023-04-01T00:03:22;4.07;;;3.77;;
16804;SDS011;8520;50.102;20.010;2023-04-01T00:05:52;4.00;;;3.80;;
16804;SDS011;8520;50.102;20.010;2023-04-01T00:08:22;4.27;;;3.90;;
16804;SDS011;8520;50.102;20.010;2023-04-01T00:10:50;4.37;;;4.17;;
16804;SDS011;8520;50.102;20.010;2023-04-01T00:13:18;4.80;;;4.50;;
16804;SDS011;8520;50.102;20.010;2023-04-01T00:15:47;4.63;;;4.33;;
16804;SDS011;8520;50.102;20.010;2023-04-01T00:18:16;4.47;;;4.23;;
16804;SDS011;8520;50.102;20.010;2023-04-01T00:20:44;4.40;;;4.10;;
16804;SDS011;8520;50.102;20.010;2023-04-01T00:23:13;4.40;;;4.20;;
16804;SDS011;8520;50.102;20.010;2023-04-01T00:25:44;4.60;;;4.30;;
16804;SDS011;8520;50.102;20.010;2023-04-01T00:28:14;5.17;;;4.67;;
16804;SDS011;8520;50.102;20.010;2023-04-01T00:30:42;4.70;;;4.40;;
16804;SDS011;8520;50.102;20.010;2023-04-01T00:33:11;5.00;;;4.70;;
16804;SDS011;8520;50.102;20.010;2023-04-01T00:35:39;4.93;;;4.63;;
16804;SDS011;8520;50.102;20.010;2023-04-01T00:38:08;5.27;;;4.97;;
16804;SDS011;8520;50.102;20.010;2023-04-01T00:40:38;5.00;;;4.70;;
16804;SDS011;8520;50.102;20.010;2023-04-01T00:43:13;4.83;;;4.53;;
16804;SDS011;8520;50.102;20.010;2023-04-01T00:45:44;5.23;;;4.93;;
16804;SDS011;8520;50.102;20.010;2023-04-01T00:48:15;5.30;;;5.00;;
16804;SDS011;8520;50.102;20.010;2023-04-01T00:50:48;5.63;;;5.33;;
16804;SDS011;8520;50.102;20.010;2023-04-01T00:53:19;5.83;;;5.43;;
16804;SDS011;8520;50.102;20.010;2023-04-01T00:55:49;6.27;;;5.80;;
16804;SDS011;8520;50.102;20.010;2023-04-01T00:58:22;5.60;;;5.30;;
16804;SDS011;8520;50.102;20.010;2023-04-01T01:00:53;5.93;;;5.53;;
16804;SDS011;8520;50.102;20.010;2023-04-01T01:03:23;5.67;;;5.37;;
16804;SDS011;8520;50.102;20.010;2023-04-01T01:08:54;6.13;;;5.63;;
16804;SDS011;8520;50.102;20.010;2023-04-01T01:11:35;6.27;;;5.97;;
16804;SDS011;8520;50.102;20.010;2023-04-01T01:14:12;6.30;;;6.00;;
16804;SDS011;8520;50.102;20.010;2023-04-01T01:16:52;6.97;;;6.43;;
16804;SDS011;8520;50.102;20.010;2023-04-01T01:19:34;6.63;;;6.20;;
16804;SDS011;8520;50.102;20.010;2023-04-01T01:22:29;6.67;;;6.33;;
16804;SDS011;8520;50.102;20.010;2023-04-01T01:25:10;7.33;;;6.93;;
16804;SDS011;8520;50.102;20.010;2023-04-01T01:27:49;6.93;;;6.53;;
16804;SDS011;8520;50.102;20.010;2023-04-01T01:30:37;7.03;;;6.63;;
16804;SDS011;8520;50.102;20.010;2023-04-01T01:36:13;7.57;;;6.97;;
16804;SDS011;8520;50.102;20.010;2023-04-01T01:38:45;7.00;;;6.60;;
16804;SDS011;8520;50.102;20.010;2023-04-01T01:41:16;6.67;;;6.30;;
16804;SDS011;8520;50.102;20.010;2023-04-01T01:43:46;7.17;;;6.77;;
16804;SDS011;8520;50.102;20.010;2023-04-01T01:46:18;7.30;;;6.90;;
16804;SDS011;8520;50.102;20.010;2023-04-01T01:48:50;7.50;;;7.10;;
16804;SDS011;8520;50.102;20.010;2023-04-01T01:51:21;7.23;;;6.83;;
16804;SDS011;8520;50.102;20.010;2023-04-01T01:53:50;7.17;;;6.80;;
16804;SDS011;8520;50.102;20.010;2023-04-01T01:56:20;7.17;;;6.80;;
16804;SDS011;8520;50.102;20.010;2023-04-01T01:58:51;7.30;;;7.00;;
16804;SDS011;8520;50.102;20.010;2023-04-01T02:01:23;8.00;;;7.50;;
16804;SDS011;8520;50.102;20.010;2023-04-01T02:03:57;8.20;;;7.70;;
16804;SDS011;8520;50.102;20.010;2023-04-01T02:06:29;7.83;;;7.37;;
16804;SDS011;8520;50.102;20.010;2023-04-01T02:09:03;8.37;;;7.70;;
16804;SDS011;8520;50.102;20.010;2023-04-01T02:11:33;7.77;;;7.37;;
16804;SDS011;8520;50.102;20.010;2023-04-01T02:14:06;8.37;;;7.87;;
16804;SDS011;8520;50.102;20.010;2023-04-01T02:16:38;8.87;;;8.37;;
16804;SDS011;8520;50.102;20.010;2023-04-01T02:19:10;8.40;;;7.83;;
16804;SDS011;8520;50.102;20.010;2023-04-01T02:21:42;7.93;;;7.53;;
16804;SDS011;8520;50.102;20.010;2023-04-01T02:24:12;8.30;;;7.90;;
16804;SDS011;8520;50.102;20.010;2023-04-01T02:26:42;8.77;;;8.27;;
16804;SDS011;8520;50.102;20.010;2023-04-01T02:29:12;8.20;;;7.70;;
16804;SDS011;8520;50.102;20.010;2023-04-01T02:31:41;8.40;;;7.90;;
16804;SDS011;8520;50.102;20.010;2023-04-01T02:34:10;8.43;;;7.93;;
16804;SDS011;8520;50.102;20.010;2023-04-01T02:36:39;8.77;;;8.27;;
16804;SDS011;8520;50.102;20.010;2023-04-01T02:39:09;8.80;;;8.20;;
16804;SDS011;8520;50.102;20.010;2023-04-01T02:41:40;8.97;;;8.43;;
16804;SDS011;8520;50.102;20.010;2023-04-01T02:44:10;7.93;;;7.63;;
16804;SDS011;8520;50.102;20.010;2023-04-01T02:46:38;8.60;;;8.10;;
16804;SDS011;8520;50.102;20.010;2023-04-01T02:49:07;8.50;;;7.90;;
16804;SDS011;8520;50.102;20.010;2023-04-01T02:51:35;9.20;;;8.70;;
16804;SDS011;8520;50.102;20.010;2023-04-01T02:54:03;9.13;;;8.53;;
16804;SDS011;8520;50.102;20.010;2023-04-01T02:56:33;8.77;;;8.30;;
16804;SDS011;8520;50.102;20.010;2023-04-01T02:59:01;8.80;;;8.40;;
16804;SDS011;8520;50.102;20.010;2023-04-01T03:01:29;9.17;;;8.67;;
16804;SDS011;8520;50.102;20.010;2023-04-01T03:03:57;8.80;;;8.23;;
16804;SDS011;8520;50.102;20.010;2023-04-01T03:06:26;9.20;;;8.70;;
16804;SDS011;8520;50.102;20.010;2023-04-01T03:08:54;9.43;;;8.93;;
16804;SDS011;8520;50.102;20.010;2023-04-01T03:11:22;9.10;;;8.70;;
16804;SDS011;8520;50.102;20.010;2023-04-01T03:13:53;9.60;;;9.00;;
16804;SDS011;8520;50.102;20.010;2023-04-01T03:16:23;9.13;;;8.63;;
16804;SDS011;8520;50.102;20.010;2023-04-01T03:18:51;9.80;;;9.10;;
16804;SDS011;8520;50.102;20.010;2023-04-01T03:21:21;10.60;;;9.87;;
16804;SDS011;8520;50.102;20.010;2023-04-01T03:23:50;9.20;;;8.70;;
16804;SDS011;8520;50.102;20.010;2023-04-01T03:26:18;9.50;;;8.90;;
16804;SDS011;8520;50.102;20.010;2023-04-01T03:28:48;9.40;;;8.90;;
16804;SDS011;8520;50.102;20.010;2023-04-01T03:31:17;9.80;;;9.30;;
16804;SDS011;8520;50.102;20.010;2023-04-01T03:33:52;9.80;;;9.20;;
16804;SDS011;8520;50.102;20.010;2023-04-01T03:36:21;10.40;;;9.80;;
16804;SDS011;8520;50.102;20.010;2023-04-01T03:38:49;10.30;;;9.70;;
16804;SDS011;8520;50.102;20.010;2023-04-01T03:41:24;9.70;;;9.27;;
16804;SDS011;8520;50.102;20.010;2023-04-01T03:43:53;10.03;;;9.53;;
16804;SDS011;8520;50.102;20.010;2023-04-01T03:46:22;10.33;;;9.80;;
16804;SDS011;8520;50.102;20.010;2023-04-01T03:48:50;10.20;;;9.70;;
16804;SDS011;8520;50.102;20.010;2023-04-01T03:51:19;11.17;;;10.50;;
16804;SDS011;8520;50.102;20.010;2023-04-01T03:53:47;10.87;;;10.27;;
16804;SDS011;8520;50.102;20.010;2023-04-01T03:56:16;10.87;;;10.27;;
16804;SDS011;8520;50.102;20.010;2023-04-01T03:58:44;10.47;;;9.93;;
16804;SDS011;8520;50.102;20.010;2023-04-01T04:01:13;10.33;;;9.90;;
16804;SDS011;8520;50.102;20.010;2023-04-01T04:03:45;10.57;;;9.90;;
16804;SDS011;8520;50.102;20.010;2023-04-01T04:06:13;10.93;;;10.33;;
16804;SDS011;8520;50.102;20.010;2023-04-01T04:08:42;10.70;;;10.20;;
16804;SDS011;8520;50.102;20.010;2023-04-01T04:11:11;11.53;;;10.73;;
16804;SDS011;8520;50.102;20.010;2023-04-01T04:13:41;10.90;;;10.30;;
16804;SDS011;8520;50.102;20.010;2023-04-01T04:16:10;10.60;;;10.10;;
16804;SDS011;8520;50.102;20.010;2023-04-01T04:18:44;10.10;;;9.60;;
16804;SDS011;8520;50.102;20.010;2023-04-01T04:21:13;10.57;;;9.97;;
16804;SDS011;8520;50.102;20.010;2023-04-01T04:23:42;10.80;;;10.20;;
16804;SDS011;8520;50.102;20.010;2023-04-01T04:26:14;10.90;;;10.20;;
16804;SDS011;8520;50.102;20.010;2023-04-01T04:28:48;10.73;;;10.13;;
16804;SDS011;8520;50.102;20.010;2023-04-01T04:31:18;10.97;;;10.40;;
16804;SDS011;8520;50.102;20.010;2023-04-01T04:33:50;10.47;;;9.87;;
16804;SDS011;8520;50.102;20.010;2023-04-01T04:36:18;10.33;;;9.73;;
16804;SDS011;8520;50.102;20.010;2023-04-01T04:38:49;10.60;;;9.90;;
16804;SDS011;8520;50.102;20.010;2023-04-01T04:41:17;10.13;;;9.63;;
16804;SDS011;8520;50.102;20.010;2023-04-01T04:43:50;10.33;;;9.73;;
16804;SDS011;8520;50.102;20.010;2023-04-01T04:46:19;10.47;;;9.77;;
16804;SDS011;8520;50.102;20.010;2023-04-01T04:48:56;10.20;;;9.60;;
16804;SDS011;8520;50.102;20.010;2023-04-01T04:51:25;10.30;;;9.70;;
16804;SDS011;8520;50.102;20.010;2023-04-01T04:53:53;10.30;;;9.70;;
16804;SDS011;8520;50.102;20.010;2023-04-01T04:56:32;9.60;;;9.10;;
16804;SDS011;8520;50.102;20.010;2023-04-01T04:59:05;10.70;;;9.97;;
16804;SDS011;8520;50.102;20.010;2023-04-01T05:01:48;10.17;;;9.67;;
16804;SDS011;8520;50.102;20.010;2023-04-01T05:04:18;10.37;;;9.77;;
16804;SDS011;8520;50.102;20.010;2023-04-01T05:06:46;9.57;;;8.97;;
16804;SDS011;8520;50.102;20.010;2023-04-01T05:09:16;9.07;;;8.57;;
16804;SDS011;8520;50.102;20.010;2023-04-01T05:11:44;9.67;;;9.10;;
16804;SDS011;8520;50.102;20.010;2023-04-01T05:14:13;10.07;;;9.47;;
16804;SDS011;8520;50.102;20.010;2023-04-01T05:16:46;9.70;;;9.20;;
16804;SDS011;8520;50.102;20.010;2023-04-01T05:19:15;9.80;;;9.20;;
16804;SDS011;8520;50.102;20.010;2023-04-01T05:21:45;9.40;;;8.87;;
16804;SDS011;8520;50.102;20.010;2023-04-01T05:24:14;9.80;;;9.20;;
16804;SDS011;8520;50.102;20.010;2023-04-01T05:26:43;9.80;;;9.30;;
16804;SDS011;8520;50.102;20.010;2023-04-01T05:29:12;9.80;;;9.10;;
16804;SDS011;8520;50.102;20.010;2023-04-01T05:31:41;9.20;;;8.70;;
16804;SDS011;8520;50.102;20.010;2023-04-01T05:34:09;9.27;;;8.67;;
16804;SDS011;8520;50.102;20.010;2023-04-01T05:36:38;9.53;;;8.83;;
16804;SDS011;8520;50.102;20.010;2023-04-01T05:39:08;9.37;;;8.70;;
16804;SDS011;8520;50.102;20.010;2023-04-01T05:41:37;8.63;;;8.10;;
16804;SDS011;8520;50.102;20.010;2023-04-01T05:44:06;9.13;;;8.43;;
16804;SDS011;8520;50.102;20.010;2023-04-01T05:46:40;9.40;;;8.70;;
16804;SDS011;8520;50.102;20.010;2023-04-01T05:49:29;14.80;;;13.67;;
16804;SDS011;8520;50.102;20.010;2023-04-01T05:51:58;9.43;;;8.83;;
16804;SDS011;8520;50.102;20.010;2023-04-01T05:54:27;9.27;;;8.67;;
16804;SDS011;8520;50.102;20.010;2023-04-01T05:56:55;8.80;;;8.30;;
16804;SDS011;8520;50.102;20.010;2023-04-01T05:59:23;8.63;;;8.07;;
16804;SDS011;8520;50.102;20.010;2023-04-01T06:01:51;8.33;;;7.83;;
16804;SDS011;8520;50.102;20.010;2023-04-01T06:04:20;8.43;;;7.93;;
16804;SDS011;8520;50.102;20.010;2023-04-01T06:06:49;8.33;;;7.73;;
16804;SDS011;8520;50.102;20.010;2023-04-01T06:09:19;8.00;;;7.60;;
16804;SDS011;8520;50.102;20.010;2023-04-01T06:11:57;8.80;;;8.10;;
16804;SDS011;8520;50.102;20.010;2023-04-01T06:14:52;8.70;;;8.10;;
16804;SDS011;8520;50.102;20.010;2023-04-01T06:17:32;8.70;;;8.00;;
16804;SDS011;8520;50.102;20.010;2023-04-01T06:20:15;8.00;;;7.50;;
16804;SDS011;8520;50.102;20.010;2023-04-01T06:23:09;8.10;;;7.60;;
16804;SDS011;8520;50.102;20.010;2023-04-01T06:25:55;7.60;;;7.10;;
16804;SDS011;8520;50.102;20.010;2023-04-01T06:31:46;8.13;;;7.60;;
16804;SDS011;8520;50.102;20.010;2023-04-01T06:34:35;7.40;;;7.00;;
16804;SDS011;8520;50.102;20.010;2023-04-01T06:37:20;7.40;;;6.90;;
16804;SDS011;8520;50.102;20.010;2023-04-01T06:40:03;8.07;;;7.57;;
16804;SDS011;8520;50.102;20.010;2023-04-01T06:42:48;8.07;;;7.57;;
16804;SDS011;8520;50.102;20.010;2023-04-01T06:45:48;8.30;;;7.70;;
16804;SDS011;8520;50.102;20.010;2023-04-01T06:49:07;8.07;;;7.37;;
16804;SDS011;8520;50.102;20.010;2023-04-01T06:52:10;7.53;;;7.03;;
16804;SDS011;8520;50.102;20.010;2023-04-01T06:55:02;7.97;;;7.27;;
16804;SDS011;8520;50.102;20.010;2023-04-01T06:58:10;7.50;;;6.90;;
16804;SDS011;8520;50.102;20.010;2023-04-01T07:00:44;7.80;;;7.10;;
16804;SDS011;8520;50.102;20.010;2023-04-01T07:03:17;7.30;;;6.80;;
16804;SDS011;8520;50.102;20.010;2023-04-01T07:05:49;7.40;;;6.80;;
16804;SDS011;8520;50.102;20.010;2023-04-01T07:08:20;7.17;;;6.50;;
16804;SDS011;8520;50.102;20.010;2023-04-01T07:10:53;7.17;;;6.67;;
16804;SDS011;8520;50.102;20.010;2023-04-01T07:13:45;7.20;;;6.80;;
16804;SDS011;8520;50.102;20.010;2023-04-01T07:16:19;6.97;;;6.47;;
16804;SDS011;8520;50.102;20.010;2023-04-01T07:18:52;7.07;;;6.40;;
16804;SDS011;8520;50.102;20.010;2023-04-01T07:21:35;6.40;;;5.97;;
16804;SDS011;8520;50.102;20.010;2023-04-01T07:24:17;6.27;;;5.87;;
16804;SDS011;8520;50.102;20.010;2023-04-01T07:27:00;5.50;;;5.10;;
16804;SDS011;8520;50.102;20.010;2023-04-01T07:29:35;6.00;;;5.50;;
16804;SDS011;8520;50.102;20.010;2023-04-01T07:32:07;5.87;;;5.47;;
16804;SDS011;8520;50.102;20.010;2023-04-01T07:34:46;6.60;;;6.00;;
16804;SDS011;8520;50.102;20.010;2023-04-01T07:37:25;5.93;;;5.43;;
16804;SDS011;8520;50.102;20.010;2023-04-01T07:40:01;5.90;;;5.40;;
16804;SDS011;8520;50.102;20.010;2023-04-01T07:42:43;5.37;;;4.97;;
16804;SDS011;8520;50.102;20.010;2023-04-01T07:45:27;5.20;;;4.80;;
16804;SDS011;8520;50.102;20.010;2023-04-01T07:48:03;4.90;;;4.50;;
16804;SDS011;8520;50.102;20.010;2023-04-01T07:50:41;6.10;;;5.50;;
16804;SDS011;8520;50.102;20.010;2023-04-01T07:53:20;5.30;;;4.80;;
16804;SDS011;8520;50.102;20.010;2023-04-01T07:55:58;4.53;;;4.23;;
16804;SDS011;8520;50.102;20.010;2023-04-01T07:58:40;4.33;;;3.93;;
16804;SDS011;8520;50.102;20.010;2023-04-01T08:01:45;4.97;;;4.57;;
16804;SDS011;8520;50.102;20.010;2023-04-01T08:04:25;5.00;;;4.60;;
16804;SDS011;8520;50.102;20.010;2023-04-01T08:07:05;4.73;;;4.40;;
16804;SDS011;8520;50.102;20.010;2023-04-01T08:09:46;4.43;;;4.10;;
16804;SDS011;8520;50.102;20.010;2023-04-01T08:12:42;3.90;;;3.67;;
16804;SDS011;8520;50.102;20.010;2023-04-01T08:15:53;4.23;;;4.00;;
16804;SDS011;8520;50.102;20.010;2023-04-01T08:18:41;5.20;;;3.70;;
16804;SDS011;8520;50.102;20.010;2023-04-01T08:21:16;3.77;;;3.47;;
16804;SDS011;8520;50.102;20.010;2023-04-01T08:23:49;4.40;;;4.03;;
16804;SDS011;8520;50.102;20.010;2023-04-01T08:26:23;4.27;;;3.97;;
16804;SDS011;8520;50.102;20.010;2023-04-01T08:28:59;4.47;;;4.00;;
16804;SDS011;8520;50.102;20.010;2023-04-01T08:31:33;3.93;;;3.53;;
16804;SDS011;8520;50.102;20.010;2023-04-01T08:34:08;4.00;;;3.57;;
16804;SDS011;8520;50.102;20.010;2023-04-01T08:36:43;3.80;;;3.50;;
16804;SDS011;8520;50.102;20.010;2023-04-01T08:39:17;3.90;;;3.60;;
16804;SDS011;8520;50.102;20.010;2023-04-01T08:41:58;3.53;;;3.30;;
16804;SDS011;8520;50.102;20.010;2023-04-01T08:45:15;4.27;;;3.93;;
16804;SDS011;8520;50.102;20.010;2023-04-01T08:51:11;3.73;;;3.43;;
16804;SDS011;8520;50.102;20.010;2023-04-01T08:54:03;4.00;;;3.70;;
16804;SDS011;8520;50.102;20.010;2023-04-01T08:56:47;4.10;;;3.33;;
16804;SDS011;8520;50.102;20.010;2023-04-01T08:59:24;3.37;;;3.10;;
16804;SDS011;8520;50.102;20.010;2023-04-01T09:02:25;3.20;;;3.00;;
16804;SDS011;8520;50.102;20.010;2023-04-01T09:08:17;2.97;;;2.77;;
16804;SDS011;8520;50.102;20.010;2023-04-01T09:14:23;3.73;;;3.03;;
16804;SDS011;8520;50.102;20.010;2023-04-01T09:17:41;3.70;;;3.43;;
16804;SDS011;8520;50.102;20.010;2023-04-01T09:20:39;3.37;;;3.07;;
16804;SDS011;8520;50.102;20.010;2023-04-01T09:23:20;3.30;;;3.10;;
16804;SDS011;8520;50.102;20.010;2023-04-01T09:26:06;3.00;;;2.73;;
16804;SDS011;8520;50.102;20.010;2023-04-01T09:28:47;3.07;;;2.87;;
16804;SDS011;8520;50.102;20.010;2023-04-01T09:31:32;4.10;;;3.53;;
16804;SDS011;8520;50.102;20.010;2023-04-01T09:34:38;4.40;;;4.10;;
16804;SDS011;8520;50.102;20.010;2023-04-01T09:37:27;4.17;;;3.77;;
16804;SDS011;8520;50.102;20.010;2023-04-01T09:40:14;4.00;;;3.70;;
16804;SDS011;8520;50.102;20.010;2023-04-01T09:42:55;4.63;;;4.27;;
16804;SDS011;8520;50.102;20.010;2023-04-01T09:45:47;4.53;;;4.13;;
16804;SDS011;8520;50.102;20.010;2023-04-01T09:48:33;4.00;;;3.23;;
16804;SDS011;8520;50.102;20.010;2023-04-01T09:51:17;3.70;;;3.50;;
16804;SDS011;8520;50.102;20.010;2023-04-01T09:53:58;4.57;;;3.90;;
16804;SDS011;8520;50.102;20.010;2023-04-01T09:56:52;3.90;;;3.60;;
16804;SDS011;8520;50.102;20.010;2023-04-01T10:00:02;4.70;;;4.40;;
16804;SDS011;8520;50.102;20.010;2023-04-01T10:03:09;3.97;;;3.67;;
16804;SDS011;8520;50.102;20.010;2023-04-01T10:09:29;3.47;;;3.27;;
16804;SDS011;8520;50.102;20.010;2023-04-01T10:12:40;4.00;;;3.80;;
16804;SDS011;8520;50.102;20.010;2023-04-01T10:15:35;4.53;;;4.13;;
16804;SDS011;8520;50.102;20.010;2023-04-01T10:18:47;4.70;;;4.40;;
16804;SDS011;8520;50.102;20.010;2023-04-01T10:21:42;5.40;;;5.00;;
16804;SDS011;8520;50.102;20.010;2023-04-01T10:24:33;5.13;;;4.73;;
16804;SDS011;8520;50.102;20.010;2023-04-01T10:27:30;4.83;;;4.43;;
16804;SDS011;8520;50.102;20.010;2023-04-01T10:30:55;5.27;;;4.97;;
16804;SDS011;8520;50.102;20.010;2023-04-01T10:34:05;5.13;;;4.83;;
16804;SDS011;8520;50.102;20.010;2023-04-01T10:36:52;5.10;;;4.80;;
16804;SDS011;8520;50.102;20.010;2023-04-01T10:39:37;5.60;;;5.20;;
16804;SDS011;8520;50.102;20.010;2023-04-01T10:43:04;4.50;;;4.20;;
16804;SDS011;8520;50.102;20.010;2023-04-01T10:49:06;3.17;;;2.97;;
16804;SDS011;8520;50.102;20.010;2023-04-01T10:52:04;2.80;;;2.60;;
16804;SDS011;8520;50.102;20.010;2023-04-01T10:55:17;3.00;;;2.80;;
16804;SDS011;8520;50.102;20.010;2023-04-01T10:58:29;2.50;;;2.40;;
16804;SDS011;8520;50.102;20.010;2023-04-01T11:08:55;2.50;;;2.30;;
16804;SDS011;8520;50.102;20.010;2023-04-01T11:15:26;3.47;;;3.17;;
16804;SDS011;8520;50.102;20.010;2023-04-01T11:21:26;4.03;;;3.73;;
16804;SDS011;8520;50.102;20.010;2023-04-01T11:24:45;4.57;;;4.27;;
16804;SDS011;8520;50.102;20.010;2023-04-01T11:31:00;3.87;;;3.67;;
16804;SDS011;8520;50.102;20.010;2023-04-01T11:33:46;3.23;;;2.93;;
16804;SDS011;8520;50.102;20.010;2023-04-01T11:36:25;2.77;;;2.67;;
16804;SDS011;8520;50.102;20.010;2023-04-01T11:39:14;2.57;;;2.47;;
16804;SDS011;8520;50.102;20.010;2023-04-01T11:42:07;2.90;;;2.70;;
16804;SDS011;8520;50.102;20.010;2023-04-01T11:45:07;3.33;;;3.13;;
16804;SDS011;8520;50.102;20.010;2023-04-01T11:47:53;4.00;;;3.80;;
16804;SDS011;8520;50.102;20.010;2023-04-01T11:50:33;5.37;;;4.67;;
16804;SDS011;8520;50.102;20.010;2023-04-01T11:56:09;6.40;;;6.10;;
16804;SDS011;8520;50.102;20.010;2023-04-01T11:58:54;7.00;;;6.60;;
16804;SDS011;8520;50.102;20.010;2023-04-01T12:01:48;6.90;;;6.60;;
16804;SDS011;8520;50.102;20.010;2023-04-01T12:04:36;5.55;;;5.22;;
16804;SDS011;8520;50.102;20.010;2023-04-01T12:07:22;5.05;;;4.70;;
16804;SDS011;8520;50.102;20.010;2023-04-01T12:10:02;3.80;;;3.50;;
16804;SDS011;8520;50.102;20.010;2023-04-01T12:12:45;3.40;;;3.20;;
16804;SDS011;8520;50.102;20.010;2023-04-01T12:15:31;3.15;;;2.95;;
16804;SDS011;8520;50.102;20.010;2023-04-01T12:18:14;3.08;;;2.88;;
16804;SDS011;8520;50.102;20.010;2023-04-01T12:20:49;3.10;;;2.90;;
16804;SDS011;8520;50.102;20.010;2023-04-01T12:23:23;3.38;;;3.17;;
16804;SDS011;8520;50.102;20.010;2023-04-01T12:26:15;3.15;;;2.95;;
16804;SDS011;8520;50.102;20.010;2023-04-01T12:28:59;3.30;;;3.10;;
16804;SDS011;8520;50.102;20.010;2023-04-01T12:31:50;3.45;;;3.25;;
16804;SDS011;8520;50.102;20.010;2023-04-01T12:34:28;3.80;;;3.50;;
16804;SDS011;8520;50.102;20.010;2023-04-01T12:37:09;4.13;;;3.83;;
16804;SDS011;8520;50.102;20.010;2023-04-01T12:39:57;3.90;;;3.70;;
16804;SDS011;8520;50.102;20.010;2023-04-01T12:42:36;2.77;;;2.67;;
16804;SDS011;8520;50.102;20.010;2023-04-01T12:48:14;3.90;;;3.70;;
16804;SDS011;8520;50.102;20.010;2023-04-01T12:57:14;4.40;;;4.10;;
16804;SDS011;8520;50.102;20.010;2023-04-01T13:00:03;4.50;;;4.30;;
16804;SDS011;8520;50.102;20.010;2023-04-01T13:02:46;4.90;;;4.70;;
16804;SDS011;8520;50.102;20.010;2023-04-01T13:05:33;3.80;;;3.60;;
16804;SDS011;8520;50.102;20.010;2023-04-01T13:08:21;4.73;;;4.50;;
16804;SDS011;8520;50.102;20.010;2023-04-01T13:11:05;5.20;;;4.90;;
16804;SDS011;8520;50.102;20.010;2023-04-01T13:13:53;4.37;;;4.17;;
16804;SDS011;8520;50.102;20.010;2023-04-01T13:16:57;3.60;;;3.40;;
16804;SDS011;8520;50.102;20.010;2023-04-01T13:19:31;3.40;;;3.20;;
16804;SDS011;8520;50.102;20.010;2023-04-01T13:22:14;3.20;;;3.00;;
16804;SDS011;8520;50.102;20.010;2023-04-01T13:24:50;2.83;;;2.73;;
16804;SDS011;8520;50.102;20.010;2023-04-01T13:27:25;3.10;;;2.90;;
16804;SDS011;8520;50.102;20.010;2023-04-01T13:30:05;3.10;;;2.90;;
16804;SDS011;8520;50.102;20.010;2023-04-01T13:32:50;3.43;;;3.23;;
16804;SDS011;8520;50.102;20.010;2023-04-01T13:35:30;3.37;;;3.17;;
16804;SDS011;8520;50.102;20.010;2023-04-01T13:38:12;3.57;;;3.37;;
16804;SDS011;8520;50.102;20.010;2023-04-01T13:41:09;3.87;;;3.67;;
16804;SDS011;8520;50.102;20.010;2023-04-01T13:43:47;3.90;;;3.70;;
16804;SDS011;8520;50.102;20.010;2023-04-01T13:46:23;4.27;;;3.97;;
16804;SDS011;8520;50.102;20.010;2023-04-01T13:49:08;4.30;;;4.10;;
16804;SDS011;8520;50.102;20.010;2023-04-01T13:52:22;3.50;;;3.30;;
16804;SDS011;8520;50.102;20.010;2023-04-01T13:55:27;3.43;;;3.23;;
16804;SDS011;8520;50.102;20.010;2023-04-01T13:58:11;7.80;;;7.13;;
16804;SDS011;8520;50.102;20.010;2023-04-01T14:01:04;3.70;;;3.50;;
16804;SDS011;8520;50.102;20.010;2023-04-01T14:03:43;3.10;;;3.00;;
16804;SDS011;8520;50.102;20.010;2023-04-01T14:06:27;3.47;;;3.27;;
16804;SDS011;8520;50.102;20.010;2023-04-01T14:09:13;2.80;;;2.60;;
16804;SDS011;8520;50.102;20.010;2023-04-01T14:11:53;2.80;;;2.70;;
16804;SDS011;8520;50.102;20.010;2023-04-01T14:14:32;2.80;;;2.70;;
16804;SDS011;8520;50.102;20.010;2023-04-01T14:17:25;3.30;;;3.10;;
16804;SDS011;8520;50.102;20.010;2023-04-01T14:20:21;2.63;;;2.50;;
16804;SDS011;8520;50.102;20.010;2023-04-01T14:22:58;3.17;;;3.08;;
16804;SDS011;8520;50.102;20.010;2023-04-01T14:25:45;2.70;;;2.60;;
16804;SDS011;8520;50.102;20.010;2023-04-01T14:28:51;2.80;;;2.60;;
16804;SDS011;8520;50.102;20.010;2023-04-01T14:31:44;2.65;;;2.45;;
16804;SDS011;8520;50.102;20.010;2023-04-01T14:34:25;2.85;;;2.72;;
16804;SDS011;8520;50.102;20.010;2023-04-01T14:37:12;2.50;;;2.40;;
16804;SDS011;8520;50.102;20.010;2023-04-01T14:39:56;3.00;;;2.70;;
16804;SDS011;8520;50.102;20.010;2023-04-01T14:42:49;3.20;;;3.00;;
16804;SDS011;8520;50.102;20.010;2023-04-01T14:48:27;3.83;;;3.63;;
16804;SDS011;8520;50.102;20.010;2023-04-01T14:51:03;3.93;;;3.63;;
16804;SDS011;8520;50.102;20.010;2023-04-01T14:53:37;4.60;;;4.30;;
16804;SDS011;8520;50.102;20.010;2023-04-01T14:56:12;4.40;;;4.10;;
16804;SDS011;8520;50.102;20.010;2023-04-01T14:59:00;5.30;;;4.90;;
16804;SDS011;8520;50.102;20.010;2023-04-01T15:01:34;5.70;;;5.23;;
16804;SDS011;8520;50.102;20.010;2023-04-01T15:04:21;5.10;;;4.80;;
16804;SDS011;8520;50.102;20.010;2023-04-01T15:07:12;5.80;;;5.47;;
16804;SDS011;8520;50.102;20.010;2023-04-01T15:09:52;7.10;;;6.60;;
16804;SDS011;8520;50.102;20.010;2023-04-01T15:12:34;6.70;;;6.30;;
16804;SDS011;8520;50.102;20.010;2023-04-01T15:15:14;7.77;;;7.17;;
16804;SDS011;8520;50.102;20.010;2023-04-01T15:18:01;7.87;;;7.37;;
16804;SDS011;8520;50.102;20.010;2023-04-01T15:20:40;7.30;;;6.90;;
16804;SDS011;8520;50.102;20.010;2023-04-01T15:23:23;8.40;;;7.90;;
16804;SDS011;8520;50.102;20.010;2023-04-01T15:29:08;10.93;;;10.23;;
16804;SDS011;8520;50.102;20.010;2023-04-01T15:31:50;10.40;;;9.90;;
16804;SDS011;8520;50.102;20.010;2023-04-01T15:34:28;11.30;;;10.70;;
16804;SDS011;8520;50.102;20.010;2023-04-01T15:37:04;11.20;;;10.70;;
16804;SDS011;8520;50.102;20.010;2023-04-01T15:39:45;12.40;;;11.90;;
16804;SDS011;8520;50.102;20.010;2023-04-01T15:42:25;13.50;;;12.90;;
16804;SDS011;8520;50.102;20.010;2023-04-01T15:45:17;15.97;;;15.23;;
16804;SDS011;8520;50.102;20.010;2023-04-01T15:48:01;16.83;;;16.03;;
16804;SDS011;8520;50.102;20.010;2023-04-01T15:50:38;18.33;;;17.53;;
16804;SDS011;8520;50.102;20.010;2023-04-01T15:53:24;19.60;;;18.80;;
16804;SDS011;8520;50.102;20.010;2023-04-01T15:56:08;20.60;;;19.63;;
16804;SDS011;8520;50.102;20.010;2023-04-01T15:58:47;19.50;;;18.57;;
16804;SDS011;8520;50.102;20.010;2023-04-01T16:01:26;21.00;;;20.10;;
16804;SDS011;8520;50.102;20.010;2023-04-01T16:04:06;24.97;;;23.70;;
16804;SDS011;8520;50.102;20.010;2023-04-01T16:06:55;23.70;;;22.60;;
16804;SDS011;8520;50.102;20.010;2023-04-01T16:09:43;23.13;;;22.13;;
16804;SDS011;8520;50.102;20.010;2023-04-01T16:12:32;23.80;;;22.80;;
16804;SDS011;8520;50.102;20.010;2023-04-01T16:15:19;23.87;;;22.87;;
16804;SDS011;8520;50.102;20.010;2023-04-01T16:17:59;23.37;;;22.17;;
16804;SDS011;8520;50.102;20.010;2023-04-01T16:20:46;22.17;;;21.20;;
16804;SDS011;8520;50.102;20.010;2023-04-01T16:23:24;20.83;;;19.93;;
16804;SDS011;8520;50.102;20.010;2023-04-01T16:26:01;21.23;;;20.23;;
16804;SDS011;8520;50.102;20.010;2023-04-01T16:28:36;20.77;;;19.93;;
16804;SDS011;8520;50.102;20.010;2023-04-01T16:31:12;22.77;;;21.77;;
16804;SDS011;8520;50.102;20.010;2023-04-01T16:33:46;22.23;;;21.23;;
16804;SDS011;8520;50.102;20.010;2023-04-01T16:36:22;22.30;;;21.30;;
16804;SDS011;8520;50.102;20.010;2023-04-01T16:39:04;22.43;;;21.33;;
16804;SDS011;8520;50.102;20.010;2023-04-01T16:41:41;21.30;;;20.40;;
16804;SDS011;8520;50.102;20.010;2023-04-01T16:44:17;21.63;;;20.63;;
16804;SDS011;8520;50.102;20.010;2023-04-01T16:46:49;21.67;;;20.77;;
16804;SDS011;8520;50.102;20.010;2023-04-01T16:49:32;23.10;;;22.00;;
16804;SDS011;8520;50.102;20.010;2023-04-01T16:52:12;22.83;;;21.73;;
16804;SDS011;8520;50.102;20.010;2023-04-01T16:54:50;24.93;;;23.73;;
16804;SDS011;8520;50.102;20.010;2023-04-01T16:57:25;24.80;;;23.60;;
16804;SDS011;8520;50.102;20.010;2023-04-01T16:59:57;25.47;;;24.27;;